YM Uniformity — BLHQ — position and weather

sailwx.info

Track history (hours):
 
Tides and Currents Weather Stations Pressure Air Temp Water Temp Dewpoint Dewpoint Depression Visibility Wind Speed Wind Dir Waves Ship Positions

YM Uniformity

Last reported at 2018-Feb-19 07:50 UTC. Time now 2018-Feb-20 21:51 UTC.
Position N 42°17' W 070°01'.

Length 333 m; draft 11.2 m.

Type: Ship (hazmat cat D). MMSI: 416468000.

Date/timePositionNaut miles runAvg speedWind from/ knotsBaromVisibWave heightAir tempDewpointWater temp
2018-Feb-19 07:50N 42°17' W 070°01'516.0
2018-Feb-19 07:30N 42°17' W 070°08'816.0
2018-Feb-19 07:00N 42°18' W 070°19'815.8
2018-Feb-19 06:30N 42°19' W 070°29'815.5
2018-Feb-19 06:00N 42°20' W 070°40'712.8
2018-Feb-19 05:30N 42°22' W 070°48'511.1
2018-Feb-19 05:00N 42°22' W 070°55'4 8.9
2018-Feb-19 04:31N 42°20' W 071°01'0 0.9
2018-Feb-19 03:58N 42°21' W 071°01'0 0.0
2018-Feb-19 03:28N 42°21' W 071°01'0 0.0
2018-Feb-19 02:58N 42°21' W 071°01'0 0.0
2018-Feb-19 02:28N 42°21' W 071°01'0 0.0
2018-Feb-19 01:55N 42°21' W 071°01'0 0.0
2018-Feb-19 01:28N 42°21' W 071°01'0 0.0
2018-Feb-19 00:52N 42°21' W 071°01'0 0.0
2018-Feb-19 00:28N 42°21' W 071°01'0 0.0
2018-Feb-18 23:58N 42°21' W 071°01'0 0.0
2018-Feb-18 23:28N 42°21' W 071°01'0 0.0
2018-Feb-18 22:58N 42°21' W 071°01'0 0.0
2018-Feb-18 22:28N 42°21' W 071°01'0 0.0
2018-Feb-18 21:58N 42°21' W 071°01'0 0.0
2018-Feb-18 21:28N 42°21' W 071°01'0 0.0
2018-Feb-18 20:58N 42°21' W 071°01'0 0.0
2018-Feb-18 20:28N 42°21' W 071°01'0 0.0
2018-Feb-18 19:58N 42°21' W 071°01'0 0.0
2018-Feb-18 19:28N 42°21' W 071°01'0 0.0
2018-Feb-18 18:58N 42°21' W 071°01'0 0.0
2018-Feb-18 18:28N 42°21' W 071°01'0 0.0
2018-Feb-18 17:58N 42°21' W 071°01'0 0.0
2018-Feb-18 17:28N 42°21' W 071°01'0 0.0
2018-Feb-18 16:58N 42°21' W 071°01'0 0.0
2018-Feb-18 16:28N 42°21' W 071°01'0 0.0
2018-Feb-18 15:58N 42°21' W 071°01'0 0.0
2018-Feb-18 15:28N 42°21' W 071°01'0 0.0
2018-Feb-18 14:58N 42°21' W 071°01'0 0.0
2018-Feb-18 14:28N 42°21' W 071°01'0 0.0
2018-Feb-18 13:58N 42°21' W 071°01'0 0.0
2018-Feb-18 13:28N 42°21' W 071°01'0 0.0
2018-Feb-18 12:58N 42°21' W 071°01'0 0.0
2018-Feb-18 12:28N 42°21' W 071°01'0 0.0
2018-Feb-18 11:58N 42°21' W 071°01'0 0.0
2018-Feb-18 11:28N 42°21' W 071°01'0 0.0
2018-Feb-18 10:58N 42°21' W 071°01'0 0.0
2018-Feb-18 10:25N 42°21' W 071°01'0 0.0
2018-Feb-18 09:58N 42°21' W 071°01'0 0.0
2018-Feb-18 09:28N 42°21' W 071°01'0 0.0
2018-Feb-18 08:55N 42°21' W 071°01'0 0.0
2018-Feb-18 08:28N 42°21' W 071°01'0 0.0
2018-Feb-18 07:58N 42°21' W 071°01'0 0.0
2018-Feb-18 07:28N 42°21' W 071°01'0 0.0
2018-Feb-18 06:58N 42°21' W 071°01'0 0.0
2018-Feb-18 06:28N 42°21' W 071°01'0 0.0
2018-Feb-18 05:57N 42°21' W 071°01'1 2.6
2018-Feb-18 05:29N 42°20' W 070°60'3 6.4
2018-Feb-18 05:00N 42°21' W 070°56'5 8.2
2018-Feb-18 04:21N 42°23' W 070°49'310.0
2018-Feb-18 04:00N 42°23' W 070°44'510.3
2018-Feb-18 03:30N 42°22' W 070°38'611.3
2018-Feb-18 03:00N 42°21' W 070°30'611.4
2018-Feb-18 02:30N 42°21' W 070°22'611.8
2018-Feb-18 02:00N 42°20' W 070°15'611.8
2018-Feb-18 01:30N 42°20' W 070°07'611.4
2018-Feb-18 01:01N 42°18' W 069°59'196 7.4
2018-Feb-16 22:30N 40°25' W 073°32'4 9.0
2018-Feb-16 22:00N 40°25' W 073°38'5 8.7
2018-Feb-16 21:29N 40°26' W 073°44'4 9.1
2018-Feb-16 21:00N 40°28' W 073°50'5 9.6
2018-Feb-16 20:30N 40°29' W 073°55'612.0
2018-Feb-16 20:00N 40°33' W 074°02'713.4
2018-Feb-16 19:31N 40°39' W 074°03'1 2.7
2018-Feb-16 19:01N 40°40' W 074°05'0 0.0
2018-Feb-16 18:26N 40°40' W 074°05'0 0.0
2018-Feb-16 17:59N 40°40' W 074°05'0 0.0
2018-Feb-16 17:26N 40°40' W 074°05'0 0.0
2018-Feb-16 16:59N 40°40' W 074°05'0 0.0
2018-Feb-16 16:29N 40°40' W 074°05'0 0.0
2018-Feb-16 15:59N 40°40' W 074°05'0 0.0
2018-Feb-16 15:26N 40°40' W 074°05'0 0.0
2018-Feb-16 14:59N 40°40' W 074°05'0 0.0
2018-Feb-16 14:29N 40°40' W 074°05'0 0.0
2018-Feb-16 13:59N 40°40' W 074°05'0 0.0
2018-Feb-16 13:26N 40°40' W 074°05'0 0.0
2018-Feb-16 12:59N 40°40' W 074°05'0 0.0
2018-Feb-16 12:29N 40°40' W 074°05'0 0.0
2018-Feb-16 11:59N 40°40' W 074°05'0 0.0
2018-Feb-16 11:29N 40°40' W 074°05'0 0.0
2018-Feb-16 10:29N 40°40' W 074°05'0 0.0
2018-Feb-16 09:38N 40°40' W 074°05'0 0.0
2018-Feb-16 09:29N 40°40' W 074°05'0 0.0
2018-Feb-16 08:56N 40°40' W 074°05'0 0.0
2018-Feb-16 08:23N 40°40' W 074°05'0 0.0
2018-Feb-16 07:59N 40°40' W 074°05'0 0.0
2018-Feb-16 07:29N 40°40' W 074°05'0 0.0
2018-Feb-16 06:59N 40°40' W 074°05'0 0.0
2018-Feb-16 06:29N 40°40' W 074°05'0 0.0
2018-Feb-16 05:59N 40°40' W 074°05'0 0.0
2018-Feb-16 05:29N 40°40' W 074°05'0 0.0
2018-Feb-16 04:56N 40°40' W 074°05'0 0.0
2018-Feb-16 04:29N 40°40' W 074°05'0 0.0
2018-Feb-16 03:59N 40°40' W 074°05'0 0.0
2018-Feb-16 03:29N 40°40' W 074°05'0 0.0
2018-Feb-16 02:59N 40°40' W 074°05'0 0.0
2018-Feb-16 02:29N 40°40' W 074°05'0 0.0
2018-Feb-16 01:59N 40°40' W 074°05'0 0.0
2018-Feb-16 01:29N 40°40' W 074°05'0 0.0
2018-Feb-16 00:59N 40°40' W 074°05'0 0.0
2018-Feb-16 00:29N 40°40' W 074°05'0 0.0
2018-Feb-15 23:59N 40°40' W 074°05'0 0.0
2018-Feb-15 23:29N 40°40' W 074°05'0 0.0
2018-Feb-15 22:59N 40°40' W 074°05'0 0.0
2018-Feb-15 22:29N 40°40' W 074°05'0 0.0
2018-Feb-15 21:59N 40°40' W 074°05'0 0.0
2018-Feb-15 21:29N 40°40' W 074°05'0 0.0
2018-Feb-15 20:59N 40°40' W 074°05'0 0.0
2018-Feb-15 20:29N 40°40' W 074°05'0 0.0
2018-Feb-15 19:59N 40°40' W 074°05'0 0.0
2018-Feb-15 19:29N 40°40' W 074°05'0 0.0
2018-Feb-15 18:59N 40°40' W 074°05'0 0.0
2018-Feb-15 18:29N 40°40' W 074°05'0 0.0
2018-Feb-15 17:56N 40°40' W 074°05'0 0.0
2018-Feb-15 17:29N 40°40' W 074°05'0 0.0
2018-Feb-15 16:59N 40°40' W 074°05'0 0.0
2018-Feb-15 16:29N 40°40' W 074°05'0 0.0
2018-Feb-15 15:56N 40°40' W 074°05'0 0.0
2018-Feb-15 15:29N 40°40' W 074°05'0 0.0
2018-Feb-15 14:59N 40°40' W 074°05'0 0.0
2018-Feb-15 14:29N 40°40' W 074°05'0 0.0
2018-Feb-15 13:59N 40°40' W 074°05'0 0.0
2018-Feb-15 13:26N 40°40' W 074°05'0 0.0
2018-Feb-15 12:59N 40°40' W 074°05'0 0.0
2018-Feb-15 12:29N 40°40' W 074°05'0 0.0
2018-Feb-15 11:59N 40°40' W 074°05'0 0.0
2018-Feb-15 11:29N 40°40' W 074°05'0 0.0
2018-Feb-15 10:59N 40°40' W 074°05'0 0.0
2018-Feb-15 10:29N 40°40' W 074°05'0 0.0
2018-Feb-15 09:59N 40°40' W 074°05'0 0.0
2018-Feb-15 09:29N 40°40' W 074°05'0 0.0
2018-Feb-15 08:59N 40°40' W 074°05'0 0.0
2018-Feb-15 08:29N 40°40' W 074°05'0 0.0
2018-Feb-15 07:59N 40°40' W 074°05'0 0.0
2018-Feb-15 07:26N 40°40' W 074°05'0 0.0
2018-Feb-15 06:59N 40°40' W 074°05'0 0.0
2018-Feb-15 06:29N 40°40' W 074°05'0 0.0
2018-Feb-15 05:59N 40°40' W 074°05'0 0.0
2018-Feb-15 05:29N 40°40' W 074°05'0 0.0
2018-Feb-15 04:59N 40°40' W 074°05'0 0.0
2018-Feb-15 04:29N 40°40' W 074°05'0 0.0
2018-Feb-15 03:59N 40°40' W 074°05'0 0.0
2018-Feb-15 03:29N 40°40' W 074°05'0 0.0
2018-Feb-15 02:59N 40°40' W 074°05'0 0.0
2018-Feb-15 02:29N 40°40' W 074°05'0 0.0
2018-Feb-15 01:59N 40°40' W 074°05'0 0.0
2018-Feb-15 01:29N 40°40' W 074°05'0 0.0
2018-Feb-15 00:59N 40°40' W 074°05'0 0.0
2018-Feb-15 00:26N 40°40' W 074°05'0 0.0
2018-Feb-14 23:59N 40°40' W 074°05'0 0.0
2018-Feb-14 23:29N 40°40' W 074°05'0 0.0
2018-Feb-14 22:56N 40°40' W 074°05'0 0.0
2018-Feb-14 22:26N 40°40' W 074°05'0 0.0
2018-Feb-14 21:59N 40°40' W 074°05'0 0.0
2018-Feb-14 21:29N 40°40' W 074°05'0 0.0
2018-Feb-14 20:56N 40°40' W 074°05'0 0.0
2018-Feb-14 20:29N 40°40' W 074°05'0 0.0
2018-Feb-14 19:59N 40°40' W 074°05'0 0.0
2018-Feb-14 19:29N 40°40' W 074°05'0 0.0
2018-Feb-14 18:59N 40°40' W 074°05'0 0.0
2018-Feb-14 18:29N 40°40' W 074°05'0 0.0
2018-Feb-14 17:59N 40°40' W 074°05'0 0.0
2018-Feb-14 17:29N 40°40' W 074°05'0 0.0
2018-Feb-14 16:59N 40°40' W 074°05'0 0.0
2018-Feb-14 16:26N 40°40' W 074°05'0 0.0
2018-Feb-14 15:59N 40°40' W 074°05'0 0.0
2018-Feb-14 15:29N 40°40' W 074°05'0 0.0
2018-Feb-14 14:59N 40°40' W 074°05'0 0.0
2018-Feb-14 14:31N 40°40' W 074°05'2 3.9
2018-Feb-14 14:01N 40°39' W 074°03'4 8.7
2018-Feb-14 13:31N 40°34' W 074°02'5 9.7
2018-Feb-14 13:01N 40°30' W 073°58'4 8.0
2018-Feb-14 12:30N 40°29' W 073°53'4 8.5
2018-Feb-14 12:00N 40°27' W 073°48'4 7.8
2018-Feb-14 11:31N 40°23' W 073°47'4 8.5
2018-Feb-14 10:59N 40°19' W 073°46'3 6.5
2018-Feb-14 10:30N 40°16' W 073°46'4 6.8
2018-Feb-14 09:59N 40°12' W 073°45'611.2
2018-Feb-14 09:26N 40°06' W 073°44'914.4
2018-Feb-14 08:47N 39°57' W 073°42'615.3
2018-Feb-14 08:23N 39°51' W 073°42'615.4
2018-Feb-14 08:00N 39°45' W 073°41'1015.3
2018-Feb-14 07:22N 39°35' W 073°41'515.2
2018-Feb-14 07:01N 39°30' W 073°41'815.1
2018-Feb-14 06:30N 39°22' W 073°42'915.1
2018-Feb-14 05:55N 39°13' W 073°42'  
Track history (hours):
 
Tides and Currents Weather Stations Pressure Air Temp Water Temp Dewpoint Dewpoint Depression Visibility Wind Speed Wind Dir Waves Ship Positions

YM Uniformity

Last reported at 2018-Feb-19 07:50 UTC. Time now 2018-Feb-20 21:51 UTC.
Position N 42°17' W 070°01'.

Length 333 m; draft 11.2 m.

Type: Ship (hazmat cat D). MMSI: 416468000.

Date/timePositionNaut miles runAvg speedWind from/ knotsBaromVisibWave heightAir tempDewpointWater temp
2018-Feb-19 07:50N 42°17' W 070°01'516.0
2018-Feb-19 07:30N 42°17' W 070°08'816.0
2018-Feb-19 07:00N 42°18' W 070°19'815.8
2018-Feb-19 06:30N 42°19' W 070°29'815.5
2018-Feb-19 06:00N 42°20' W 070°40'712.8
2018-Feb-19 05:30N 42°22' W 070°48'511.1
2018-Feb-19 05:00N 42°22' W 070°55'4 8.9
2018-Feb-19 04:31N 42°20' W 071°01'0 0.9
2018-Feb-19 03:58N 42°21' W 071°01'0 0.0
2018-Feb-19 03:28N 42°21' W 071°01'0 0.0
2018-Feb-19 02:58N 42°21' W 071°01'0 0.0
2018-Feb-19 02:28N 42°21' W 071°01'0 0.0
2018-Feb-19 01:55N 42°21' W 071°01'0 0.0
2018-Feb-19 01:28N 42°21' W 071°01'0 0.0
2018-Feb-19 00:52N 42°21' W 071°01'0 0.0
2018-Feb-19 00:28N 42°21' W 071°01'0 0.0
2018-Feb-18 23:58N 42°21' W 071°01'0 0.0
2018-Feb-18 23:28N 42°21' W 071°01'0 0.0
2018-Feb-18 22:58N 42°21' W 071°01'0 0.0
2018-Feb-18 22:28N 42°21' W 071°01'0 0.0
2018-Feb-18 21:58N 42°21' W 071°01'0 0.0
2018-Feb-18 21:28N 42°21' W 071°01'0 0.0
2018-Feb-18 20:58N 42°21' W 071°01'0 0.0
2018-Feb-18 20:28N 42°21' W 071°01'0 0.0
2018-Feb-18 19:58N 42°21' W 071°01'0 0.0
2018-Feb-18 19:28N 42°21' W 071°01'0 0.0
2018-Feb-18 18:58N 42°21' W 071°01'0 0.0
2018-Feb-18 18:28N 42°21' W 071°01'0 0.0
2018-Feb-18 17:58N 42°21' W 071°01'0 0.0
2018-Feb-18 17:28N 42°21' W 071°01'0 0.0
2018-Feb-18 16:58N 42°21' W 071°01'0 0.0
2018-Feb-18 16:28N 42°21' W 071°01'0 0.0
2018-Feb-18 15:58N 42°21' W 071°01'0 0.0
2018-Feb-18 15:28N 42°21' W 071°01'0 0.0
2018-Feb-18 14:58N 42°21' W 071°01'0 0.0
2018-Feb-18 14:28N 42°21' W 071°01'0 0.0
2018-Feb-18 13:58N 42°21' W 071°01'0 0.0
2018-Feb-18 13:28N 42°21' W 071°01'0 0.0
2018-Feb-18 12:58N 42°21' W 071°01'0 0.0
2018-Feb-18 12:28N 42°21' W 071°01'0 0.0
2018-Feb-18 11:58N 42°21' W 071°01'0 0.0
2018-Feb-18 11:28N 42°21' W 071°01'0 0.0
2018-Feb-18 10:58N 42°21' W 071°01'0 0.0
2018-Feb-18 10:25N 42°21' W 071°01'0 0.0
2018-Feb-18 09:58N 42°21' W 071°01'0 0.0
2018-Feb-18 09:28N 42°21' W 071°01'0 0.0
2018-Feb-18 08:55N 42°21' W 071°01'0 0.0
2018-Feb-18 08:28N 42°21' W 071°01'0 0.0
2018-Feb-18 07:58N 42°21' W 071°01'0 0.0
2018-Feb-18 07:28N 42°21' W 071°01'0 0.0
2018-Feb-18 06:58N 42°21' W 071°01'0 0.0
2018-Feb-18 06:28N 42°21' W 071°01'0 0.0
2018-Feb-18 05:57N 42°21' W 071°01'1 2.6
2018-Feb-18 05:29N 42°20' W 070°60'3 6.4
2018-Feb-18 05:00N 42°21' W 070°56'5 8.2
2018-Feb-18 04:21N 42°23' W 070°49'310.0
2018-Feb-18 04:00N 42°23' W 070°44'510.3
2018-Feb-18 03:30N 42°22' W 070°38'611.3
2018-Feb-18 03:00N 42°21' W 070°30'611.4
2018-Feb-18 02:30N 42°21' W 070°22'611.8
2018-Feb-18 02:00N 42°20' W 070°15'611.8
2018-Feb-18 01:30N 42°20' W 070°07'611.4
2018-Feb-18 01:01N 42°18' W 069°59'196 7.4
2018-Feb-16 22:30N 40°25' W 073°32'4 9.0
2018-Feb-16 22:00N 40°25' W 073°38'5 8.7
2018-Feb-16 21:29N 40°26' W 073°44'4 9.1
2018-Feb-16 21:00N 40°28' W 073°50'5 9.6
2018-Feb-16 20:30N 40°29' W 073°55'612.0
2018-Feb-16 20:00N 40°33' W 074°02'713.4
2018-Feb-16 19:31N 40°39' W 074°03'1 2.7
2018-Feb-16 19:01N 40°40' W 074°05'0 0.0
2018-Feb-16 18:26N 40°40' W 074°05'0 0.0
2018-Feb-16 17:59N 40°40' W 074°05'0 0.0
2018-Feb-16 17:26N 40°40' W 074°05'0 0.0
2018-Feb-16 16:59N 40°40' W 074°05'0 0.0
2018-Feb-16 16:29N 40°40' W 074°05'0 0.0
2018-Feb-16 15:59N 40°40' W 074°05'0 0.0
2018-Feb-16 15:26N 40°40' W 074°05'0 0.0
2018-Feb-16 14:59N 40°40' W 074°05'0 0.0
2018-Feb-16 14:29N 40°40' W 074°05'0 0.0
2018-Feb-16 13:59N 40°40' W 074°05'0 0.0
2018-Feb-16 13:26N 40°40' W 074°05'0 0.0
2018-Feb-16 12:59N 40°40' W 074°05'0 0.0
2018-Feb-16 12:29N 40°40' W 074°05'0 0.0
2018-Feb-16 11:59N 40°40' W 074°05'0 0.0
2018-Feb-16 11:29N 40°40' W 074°05'0 0.0
2018-Feb-16 10:29N 40°40' W 074°05'0 0.0
2018-Feb-16 09:38N 40°40' W 074°05'0 0.0
2018-Feb-16 09:29N 40°40' W 074°05'0 0.0
2018-Feb-16 08:56N 40°40' W 074°05'0 0.0
2018-Feb-16 08:23N 40°40' W 074°05'0 0.0
2018-Feb-16 07:59N 40°40' W 074°05'0 0.0
2018-Feb-16 07:29N 40°40' W 074°05'0 0.0
2018-Feb-16 06:59N 40°40' W 074°05'0 0.0
2018-Feb-16 06:29N 40°40' W 074°05'0 0.0
2018-Feb-16 05:59N 40°40' W 074°05'0 0.0
2018-Feb-16 05:29N 40°40' W 074°05'0 0.0
2018-Feb-16 04:56N 40°40' W 074°05'0 0.0
2018-Feb-16 04:29N 40°40' W 074°05'0 0.0
2018-Feb-16 03:59N 40°40' W 074°05'0 0.0
2018-Feb-16 03:29N 40°40' W 074°05'0 0.0
2018-Feb-16 02:59N 40°40' W 074°05'0 0.0
2018-Feb-16 02:29N 40°40' W 074°05'0 0.0
2018-Feb-16 01:59N 40°40' W 074°05'0 0.0
2018-Feb-16 01:29N 40°40' W 074°05'0 0.0
2018-Feb-16 00:59N 40°40' W 074°05'0 0.0
2018-Feb-16 00:29N 40°40' W 074°05'0 0.0
2018-Feb-15 23:59N 40°40' W 074°05'0 0.0
2018-Feb-15 23:29N 40°40' W 074°05'0 0.0
2018-Feb-15 22:59N 40°40' W 074°05'0 0.0
2018-Feb-15 22:29N 40°40' W 074°05'0 0.0
2018-Feb-15 21:59N 40°40' W 074°05'0 0.0
2018-Feb-15 21:29N 40°40' W 074°05'0 0.0
2018-Feb-15 20:59N 40°40' W 074°05'0 0.0
2018-Feb-15 20:29N 40°40' W 074°05'0 0.0
2018-Feb-15 19:59N 40°40' W 074°05'0 0.0
2018-Feb-15 19:29N 40°40' W 074°05'0 0.0
2018-Feb-15 18:59N 40°40' W 074°05'0 0.0
2018-Feb-15 18:29N 40°40' W 074°05'0 0.0
2018-Feb-15 17:56N 40°40' W 074°05'0 0.0
2018-Feb-15 17:29N 40°40' W 074°05'0 0.0
2018-Feb-15 16:59N 40°40' W 074°05'0 0.0
2018-Feb-15 16:29N 40°40' W 074°05'0 0.0
2018-Feb-15 15:56N 40°40' W 074°05'0 0.0
2018-Feb-15 15:29N 40°40' W 074°05'0 0.0
2018-Feb-15 14:59N 40°40' W 074°05'0 0.0
2018-Feb-15 14:29N 40°40' W 074°05'0 0.0
2018-Feb-15 13:59N 40°40' W 074°05'0 0.0
2018-Feb-15 13:26N 40°40' W 074°05'0 0.0
2018-Feb-15 12:59N 40°40' W 074°05'0 0.0
2018-Feb-15 12:29N 40°40' W 074°05'0 0.0
2018-Feb-15 11:59N 40°40' W 074°05'0 0.0
2018-Feb-15 11:29N 40°40' W 074°05'0 0.0
2018-Feb-15 10:59N 40°40' W 074°05'0 0.0
2018-Feb-15 10:29N 40°40' W 074°05'0 0.0
2018-Feb-15 09:59N 40°40' W 074°05'0 0.0
2018-Feb-15 09:29N 40°40' W 074°05'0 0.0
2018-Feb-15 08:59N 40°40' W 074°05'0 0.0
2018-Feb-15 08:29N 40°40' W 074°05'0 0.0
2018-Feb-15 07:59N 40°40' W 074°05'0 0.0
2018-Feb-15 07:26N 40°40' W 074°05'0 0.0
2018-Feb-15 06:59N 40°40' W 074°05'0 0.0
2018-Feb-15 06:29N 40°40' W 074°05'0 0.0
2018-Feb-15 05:59N 40°40' W 074°05'0 0.0
2018-Feb-15 05:29N 40°40' W 074°05'0 0.0
2018-Feb-15 04:59N 40°40' W 074°05'0 0.0
2018-Feb-15 04:29N 40°40' W 074°05'0 0.0
2018-Feb-15 03:59N 40°40' W 074°05'0 0.0
2018-Feb-15 03:29N 40°40' W 074°05'0 0.0
2018-Feb-15 02:59N 40°40' W 074°05'0 0.0
2018-Feb-15 02:29N 40°40' W 074°05'0 0.0
2018-Feb-15 01:59N 40°40' W 074°05'0 0.0
2018-Feb-15 01:29N 40°40' W 074°05'0 0.0
2018-Feb-15 00:59N 40°40' W 074°05'0 0.0
2018-Feb-15 00:26N 40°40' W 074°05'0 0.0
2018-Feb-14 23:59N 40°40' W 074°05'0 0.0
2018-Feb-14 23:29N 40°40' W 074°05'0 0.0
2018-Feb-14 22:56N 40°40' W 074°05'0 0.0
2018-Feb-14 22:26N 40°40' W 074°05'0 0.0
2018-Feb-14 21:59N 40°40' W 074°05'0 0.0
2018-Feb-14 21:29N 40°40' W 074°05'0 0.0
2018-Feb-14 20:56N 40°40' W 074°05'0 0.0
2018-Feb-14 20:29N 40°40' W 074°05'0 0.0
2018-Feb-14 19:59N 40°40' W 074°05'0 0.0
2018-Feb-14 19:29N 40°40' W 074°05'0 0.0
2018-Feb-14 18:59N 40°40' W 074°05'0 0.0
2018-Feb-14 18:29N 40°40' W 074°05'0 0.0
2018-Feb-14 17:59N 40°40' W 074°05'0 0.0
2018-Feb-14 17:29N 40°40' W 074°05'0 0.0
2018-Feb-14 16:59N 40°40' W 074°05'0 0.0
2018-Feb-14 16:26N 40°40' W 074°05'0 0.0
2018-Feb-14 15:59N 40°40' W 074°05'0 0.0
2018-Feb-14 15:29N 40°40' W 074°05'0 0.0
2018-Feb-14 14:59N 40°40' W 074°05'0 0.0
2018-Feb-14 14:31N 40°40' W 074°05'2 3.9
2018-Feb-14 14:01N 40°39' W 074°03'4 8.7
2018-Feb-14 13:31N 40°34' W 074°02'5 9.7
2018-Feb-14 13:01N 40°30' W 073°58'4 8.0
2018-Feb-14 12:30N 40°29' W 073°53'4 8.5
2018-Feb-14 12:00N 40°27' W 073°48'4 7.8
2018-Feb-14 11:31N 40°23' W 073°47'4 8.5
2018-Feb-14 10:59N 40°19' W 073°46'3 6.5
2018-Feb-14 10:30N 40°16' W 073°46'4 6.8
2018-Feb-14 09:59N 40°12' W 073°45'611.2
2018-Feb-14 09:26N 40°06' W 073°44'914.4
2018-Feb-14 08:47N 39°57' W 073°42'615.3
2018-Feb-14 08:23N 39°51' W 073°42'615.4
2018-Feb-14 08:00N 39°45' W 073°41'1015.3
2018-Feb-14 07:22N 39°35' W 073°41'515.2
2018-Feb-14 07:01N 39°30' W 073°41'815.1
2018-Feb-14 06:30N 39°22' W 073°42'915.1
2018-Feb-14 05:55N 39°13' W 073°42'  

Dump ship's entire track history